createdAt,value
2019-03-31T00:03:00.841Z,22.90
2019-03-31T00:07:51.730Z,18.60
2019-03-31T00:12:42.713Z,16.20
2019-03-31T00:17:33.597Z,19.87
2019-03-31T00:22:24.527Z,19.07
2019-03-31T00:27:15.482Z,20.70
2019-03-31T00:32:06.406Z,27.13
2019-03-31T00:36:57.327Z,20.73
2019-03-31T00:41:48.255Z,17.40
2019-03-31T00:46:39.923Z,15.53
2019-03-31T00:51:30.915Z,22.60
2019-03-31T00:56:22.587Z,17.50
2019-03-31T01:06:35.227Z,18.97
2019-03-31T01:11:26.957Z,18.27
2019-03-31T01:16:18.660Z,23.30
2019-03-31T01:21:09.586Z,16.93
2019-03-31T01:26:00.687Z,17.90
2019-03-31T01:30:52.202Z,17.95
2019-03-31T01:35:43.122Z,17.40
2019-03-31T01:40:34.043Z,18.30
2019-03-31T01:45:24.971Z,21.70
2019-03-31T01:50:15.919Z,20.27
2019-03-31T01:55:06.840Z,21.47
2019-03-31T01:59:57.797Z,21.20
2019-03-31T02:04:48.734Z,23.53
2019-03-31T02:09:39.646Z,21.37
2019-03-31T02:14:30.570Z,22.65
2019-03-31T02:19:21.511Z,21.13
2019-03-31T02:24:12.429Z,25.70
2019-03-31T02:29:03.349Z,23.77
2019-03-31T02:33:54.284Z,28.10
2019-03-31T02:38:45.223Z,21.73
2019-03-31T02:43:36.890Z,23.85
2019-03-31T02:48:27.861Z,24.40
2019-03-31T02:53:18.811Z,26.30
2019-03-31T02:58:09.742Z,25.23
2019-03-31T03:03:00.657Z,23.50
2019-03-31T03:07:52.322Z,17.93
2019-03-31T03:12:43.240Z,22.40
2019-03-31T03:17:34.167Z,24.50
2019-03-31T03:22:25.183Z,25.60
2019-03-31T03:27:16.063Z,24.63
2019-03-31T03:32:07.937Z,23.03
2019-03-31T03:36:58.700Z,30.73
2019-03-31T03:41:49.711Z,32.93
2019-03-31T03:46:40.604Z,23.80
2019-03-31T03:51:31.532Z,25.37
2019-03-31T03:56:22.465Z,25.40
2019-03-31T04:01:13.379Z,25.83
2019-03-31T04:06:04.299Z,25.10
2019-03-31T04:10:58.123Z,31.20
2019-03-31T04:15:49.807Z,24.47
2019-03-31T04:20:40.743Z,27.90
2019-03-31T04:25:31.672Z,26.13
2019-03-31T04:30:22.609Z,26.77
2019-03-31T04:35:14.285Z,31.20
2019-03-31T04:40:05.249Z,25.55
2019-03-31T04:44:56.934Z,26.10
2019-03-31T04:49:47.872Z,25.03
2019-03-31T04:54:38.800Z,24.57
2019-03-31T04:59:29.743Z,29.03
2019-03-31T05:04:20.667Z,25.20
2019-03-31T05:09:11.603Z,29.47
2019-03-31T05:14:03.342Z,25.20
2019-03-31T05:18:54.238Z,30.00
2019-03-31T05:23:45.168Z,32.30
2019-03-31T05:28:36.832Z,29.60
2019-03-31T05:33:27.759Z,33.77
2019-03-31T05:38:18.682Z,38.00
2019-03-31T05:43:09.621Z,38.27
2019-03-31T05:48:00.624Z,40.88
2019-03-31T05:52:52.260Z,41.95
2019-03-31T05:57:43.178Z,41.30
2019-03-31T06:02:34.119Z,39.83
2019-03-31T06:07:25.055Z,47.10
2019-03-31T06:12:16.039Z,42.70
2019-03-31T06:17:07.675Z,41.63
2019-03-31T06:21:58.604Z,49.60
2019-03-31T06:26:49.531Z,44.40
2019-03-31T06:31:40.495Z,48.67
2019-03-31T06:36:32.142Z,45.73
2019-03-31T06:41:23.058Z,48.83
2019-03-31T06:46:14.728Z,42.60
2019-03-31T06:51:05.672Z,42.40
2019-03-31T06:55:56.598Z,46.40
2019-03-31T07:00:47.548Z,38.03
2019-03-31T07:05:39.204Z,49.77
2019-03-31T07:10:30.139Z,43.63
2019-03-31T07:15:21.055Z,43.47
2019-03-31T07:20:12.011Z,41.03
2019-03-31T07:25:03.961Z,42.60
2019-03-31T07:29:55.636Z,39.00
2019-03-31T07:34:46.567Z,49.10
2019-03-31T07:39:37.539Z,38.37
2019-03-31T07:44:28.464Z,32.07
2019-03-31T07:49:19.380Z,35.07
2019-03-31T07:54:10.409Z,37.30
2019-03-31T07:59:02.141Z,28.43
2019-03-31T08:03:53.019Z,37.23
2019-03-31T08:08:43.976Z,30.90
2019-03-31T08:13:34.903Z,35.60
2019-03-31T08:18:26.598Z,33.27
2019-03-31T08:23:17.555Z,33.22
2019-03-31T08:28:09.228Z,33.77
2019-03-31T08:33:00.167Z,25.00
2019-03-31T08:37:51.102Z,25.90
2019-03-31T08:42:42.054Z,26.33
2019-03-31T08:47:33.728Z,20.77
2019-03-31T08:52:24.670Z,25.42
2019-03-31T08:57:15.595Z,26.05
2019-03-31T09:02:12.762Z,21.27
2019-03-31T09:07:03.747Z,18.97
2019-03-31T09:11:54.694Z,23.70
2019-03-31T09:16:45.614Z,16.20
2019-03-31T09:21:36.550Z,22.90
2019-03-31T09:26:27.487Z,15.60
2019-03-31T09:31:19.156Z,15.40
2019-03-31T09:36:16.540Z,15.20
2019-03-31T09:41:01.059Z,13.40
2019-03-31T09:45:52.726Z,9.47
2019-03-31T09:50:43.823Z,9.53
2019-03-31T09:55:35.493Z,10.63
2019-03-31T10:05:48.477Z,10.80
2019-03-31T10:10:38.959Z,9.97
2019-03-31T10:15:29.895Z,7.43
2019-03-31T10:20:20.888Z,7.53
2019-03-31T10:25:13.495Z,11.93
2019-03-31T10:30:02.766Z,6.00
2019-03-31T10:34:53.690Z,9.35
2019-03-31T10:39:44.630Z,7.30
2019-03-31T10:44:35.559Z,6.87
2019-03-31T10:49:26.484Z,5.20
2019-03-31T10:54:18.138Z,6.80
2019-03-31T10:59:09.821Z,4.70
2019-03-31T11:04:00.734Z,5.03
2019-03-31T11:08:51.715Z,5.70
2019-03-31T11:13:42.643Z,6.53
2019-03-31T11:18:33.628Z,5.00
2019-03-31T11:23:24.619Z,5.27
2019-03-31T11:28:15.545Z,5.47
2019-03-31T11:33:07.678Z,4.00
2019-03-31T11:37:58.195Z,4.70
2019-03-31T11:42:49.126Z,5.37
2019-03-31T11:47:40.808Z,3.57
2019-03-31T11:52:31.767Z,3.60
2019-03-31T11:57:22.687Z,3.20
2019-03-31T12:02:26.364Z,3.13
2019-03-31T12:07:05.315Z,2.80
2019-03-31T12:11:56.251Z,4.60
2019-03-31T12:16:47.183Z,3.50
2019-03-31T12:21:38.197Z,2.50
2019-03-31T12:26:29.152Z,2.90
2019-03-31T12:31:20.815Z,2.23
2019-03-31T12:36:11.731Z,1.70
2019-03-31T12:41:02.655Z,2.30
2019-03-31T12:45:54.166Z,2.75
2019-03-31T12:50:45.836Z,3.03
2019-03-31T12:55:36.775Z,1.63
2019-03-31T13:00:27.707Z,1.10
2019-03-31T13:05:18.636Z,1.67
2019-03-31T13:10:10.319Z,2.80
2019-03-31T13:15:01.251Z,2.75
2019-03-31T13:19:52.199Z,4.30
2019-03-31T13:24:43.131Z,3.90
2019-03-31T13:29:34.106Z,1.93
2019-03-31T13:34:25.043Z,3.07
2019-03-31T13:39:15.958Z,1.23
2019-03-31T13:44:06.887Z,5.97
2019-03-31T13:48:57.831Z,2.70
2019-03-31T13:53:50.250Z,2.57
2019-03-31T13:58:41.848Z,3.20
2019-03-31T14:03:32.208Z,4.93
2019-03-31T14:08:25.849Z,3.30
2019-03-31T14:13:14.162Z,6.23
2019-03-31T14:18:05.065Z,2.13
2019-03-31T14:22:55.987Z,1.20
2019-03-31T14:27:46.911Z,1.50
2019-03-31T14:32:37.839Z,1.73
2019-03-31T14:37:30.244Z,3.40
2019-03-31T14:42:21.167Z,2.50
2019-03-31T14:47:12.091Z,3.90
2019-03-31T14:52:03.036Z,4.80
2019-03-31T14:56:53.964Z,1.73
2019-03-31T15:01:44.888Z,3.17
2019-03-31T15:06:36.561Z,4.00
2019-03-31T15:11:27.496Z,2.80
2019-03-31T15:16:25.535Z,4.63
2019-03-31T15:21:16.459Z,1.23
2019-03-31T15:26:07.370Z,2.30
2019-03-31T15:30:59.779Z,4.93
2019-03-31T15:35:50.751Z,3.47
2019-03-31T15:40:42.421Z,3.33
2019-03-31T15:45:33.330Z,1.30
2019-03-31T15:50:24.250Z,3.10
2019-03-31T15:55:15.297Z,1.20
2019-03-31T16:00:06.215Z,1.40
2019-03-31T16:04:57.139Z,2.67
2019-03-31T16:09:48.079Z,2.13
2019-03-31T16:14:39.016Z,0.70
2019-03-31T16:19:30.677Z,1.27
2019-03-31T16:24:22.342Z,1.67
2019-03-31T16:29:13.314Z,3.87
2019-03-31T16:34:04.998Z,1.98
2019-03-31T16:38:55.918Z,2.77
2019-03-31T16:43:46.917Z,1.13
2019-03-31T16:48:37.851Z,1.60
2019-03-31T16:53:29.535Z,0.80
2019-03-31T16:58:20.461Z,1.45
2019-03-31T17:03:11.435Z,1.97
2019-03-31T17:08:02.438Z,2.65
2019-03-31T17:12:53.390Z,1.73
2019-03-31T17:17:44.320Z,7.37
2019-03-31T17:22:35.246Z,1.60
2019-03-31T17:27:26.167Z,2.43
2019-03-31T17:32:17.166Z,1.57
2019-03-31T17:37:08.112Z,2.13
2019-03-31T17:41:59.039Z,2.53
2019-03-31T17:46:49.967Z,2.30
2019-03-31T17:51:41.655Z,1.83
2019-03-31T17:56:32.961Z,3.83
2019-03-31T18:01:23.886Z,3.80
2019-03-31T18:06:14.810Z,3.65
2019-03-31T18:11:05.758Z,4.80
2019-03-31T18:15:56.715Z,2.13
2019-03-31T18:20:48.387Z,1.77
2019-03-31T18:25:39.328Z,3.60
2019-03-31T18:30:30.259Z,3.60
2019-03-31T18:35:21.200Z,1.50
2019-03-31T18:40:12.850Z,2.50
2019-03-31T18:45:03.797Z,2.20
2019-03-31T18:49:54.772Z,3.90
2019-03-31T18:54:49.395Z,2.03
2019-03-31T18:59:41.826Z,2.43
2019-03-31T19:04:37.715Z,2.93
2019-03-31T19:14:51.239Z,4.80
2019-03-31T19:19:43.167Z,2.63
2019-03-31T19:24:39.107Z,3.73
2019-03-31T19:29:35.109Z,2.20
2019-03-31T19:34:26.067Z,4.80
2019-03-31T19:39:18.963Z,2.60
2019-03-31T19:49:30.357Z,2.23
2019-03-31T19:54:26.139Z,6.10
2019-03-31T19:59:20.915Z,3.57
2019-03-31T20:04:15.879Z,2.70
2019-03-31T20:09:07.799Z,5.13
2019-03-31T20:14:00.631Z,2.40
2019-03-31T20:24:16.990Z,2.70
2019-03-31T20:29:14.810Z,5.50
2019-03-31T20:39:27.175Z,2.43
2019-03-31T20:44:18.112Z,1.93
2019-03-31T20:49:09.036Z,2.70
2019-03-31T20:53:59.972Z,3.10
2019-03-31T20:58:51.642Z,2.83
2019-03-31T21:03:42.570Z,3.65
2019-03-31T21:08:33.499Z,7.00
2019-03-31T21:13:24.421Z,2.27
2019-03-31T21:18:15.346Z,3.00
2019-03-31T21:23:06.375Z,1.70
2019-03-31T21:27:57.978Z,3.27
2019-03-31T21:32:48.917Z,3.10
2019-03-31T21:37:39.848Z,3.60
2019-03-31T21:46:56.035Z,3.37
2019-03-31T21:51:46.535Z,2.30
2019-03-31T21:56:38.210Z,3.23
2019-03-31T22:01:29.135Z,1.93
2019-03-31T22:06:20.059Z,2.43
2019-03-31T22:11:11.015Z,3.63
2019-03-31T22:16:02.724Z,2.55
2019-03-31T22:20:53.634Z,3.30
2019-03-31T22:25:44.563Z,6.85
2019-03-31T22:30:35.488Z,4.00
2019-03-31T22:35:26.414Z,2.60
2019-03-31T22:40:17.344Z,2.10
2019-03-31T22:45:08.285Z,3.50
2019-03-31T22:49:59.220Z,2.50
2019-03-31T22:54:50.145Z,1.67
2019-03-31T22:59:41.121Z,2.40
2019-03-31T23:04:32.011Z,1.90
2019-03-31T23:09:22.940Z,1.90
2019-03-31T23:14:13.882Z,3.27
2019-03-31T23:19:05.534Z,4.93
2019-03-31T23:23:57.187Z,4.40
2019-03-31T23:28:48.106Z,2.43
2019-03-31T23:33:39.043Z,1.70
2019-03-31T23:38:29.972Z,1.73
2019-03-31T23:43:20.888Z,2.50
2019-03-31T23:48:11.808Z,3.73
2019-03-31T23:53:02.739Z,4.43
2019-03-31T23:57:53.663Z,4.50
